createdAt,value
2022-11-07T00:13:24.076Z,33.37
2022-11-07T00:43:35.762Z,30.10
2022-11-07T01:13:48.153Z,30.77
2022-11-07T01:44:03.995Z,27.97
2022-11-07T02:14:17.825Z,17.67
2022-11-07T02:44:30.705Z,11.13
2022-11-07T03:14:41.658Z,12.80
2022-11-07T03:44:52.761Z,9.87
2022-11-07T04:15:19.990Z,8.13
2022-11-07T04:45:29.061Z,6.70
2022-11-07T05:15:38.134Z,5.13
2022-11-07T05:45:48.066Z,4.10
2022-11-07T06:16:08.598Z,4.33
2022-11-07T06:46:22.881Z,3.17
2022-11-07T07:16:31.946Z,3.63
2022-11-07T07:46:42.889Z,2.40
2022-11-07T08:16:53.685Z,3.00
2022-11-07T08:47:08.189Z,3.90
2022-11-07T09:17:20.762Z,3.77
2022-11-07T09:47:39.342Z,3.97
2022-11-07T10:17:57.240Z,3.20
2022-11-07T10:48:10.652Z,2.00
2022-11-07T11:18:23.623Z,2.20
2022-11-07T11:48:41.593Z,4.30
2022-11-07T12:19:07.506Z,2.43
2022-11-07T12:49:50.787Z,2.60
2022-11-07T13:20:11.737Z,2.40
2022-11-07T13:50:26.620Z,3.40
2022-11-07T14:20:48.710Z,3.03
2022-11-07T14:50:57.220Z,4.03
2022-11-07T15:21:06.304Z,7.23
2022-11-07T15:51:27.586Z,4.90
2022-11-07T16:21:48.039Z,7.87
2022-11-07T16:51:59.060Z,15.40
2022-11-07T17:22:08.177Z,8.23
2022-11-07T17:52:21.649Z,4.97
2022-11-07T18:22:31.756Z,7.60
2022-11-07T18:52:40.137Z,45.53
2022-11-07T19:22:54.651Z,12.73
2022-11-07T19:53:04.068Z,12.60
2022-11-07T20:23:15.965Z,15.57
2022-11-07T20:53:28.606Z,13.53
2022-11-07T21:23:40.868Z,10.60
2022-11-07T21:53:50.242Z,5.80
2022-11-07T22:24:02.102Z,7.50
2022-11-07T22:54:14.414Z,6.83
2022-11-07T23:24:24.077Z,9.23
2022-11-07T23:54:50.743Z,7.57
